createdAt,value
2023-02-16T00:00:26.885Z,21.20
2023-02-16T00:02:53.987Z,21.30
2023-02-16T00:05:28.451Z,21.30
2023-02-16T00:07:56.164Z,21.30
2023-02-16T00:10:23.345Z,21.30
2023-02-16T00:13:09.028Z,21.30
2023-02-16T00:15:35.833Z,21.30
2023-02-16T00:18:18.857Z,21.30
2023-02-16T00:20:46.234Z,21.30
2023-02-16T00:23:13.029Z,21.30
2023-02-16T00:25:40.025Z,21.30
2023-02-16T00:28:15.904Z,21.20
2023-02-16T00:30:42.660Z,21.30
2023-02-16T00:33:17.868Z,21.30
2023-02-16T00:35:44.956Z,21.30
2023-02-16T00:38:12.284Z,21.30
2023-02-16T00:40:39.769Z,21.30
2023-02-16T00:43:07.143Z,21.30
2023-02-16T00:45:37.928Z,21.30
2023-02-16T00:48:05.038Z,21.30
2023-02-16T00:50:33.702Z,21.30
2023-02-16T00:53:02.446Z,21.30
2023-02-16T00:55:35.121Z,21.30
2023-02-16T00:58:24.277Z,21.30
2023-02-16T01:00:58.268Z,21.30
2023-02-16T01:03:27.500Z,21.30
2023-02-16T01:06:14.521Z,21.30
2023-02-16T01:09:00.172Z,21.30
2023-02-16T01:11:27.528Z,21.30
2023-02-16T01:13:55.807Z,21.30
2023-02-16T01:16:26.690Z,21.30
2023-02-16T01:18:53.945Z,21.30
2023-02-16T01:21:22.000Z,21.30
2023-02-16T01:23:48.907Z,21.30
2023-02-16T01:26:18.246Z,21.30
2023-02-16T01:28:45.284Z,21.30
2023-02-16T01:31:13.643Z,21.30
2023-02-16T01:33:43.332Z,21.30
2023-02-16T01:36:46.947Z,21.30
2023-02-16T01:39:16.451Z,21.30
2023-02-16T01:42:01.731Z,21.30
2023-02-16T01:44:35.227Z,21.30
2023-02-16T01:47:30.996Z,21.30
2023-02-16T01:49:57.760Z,21.30
2023-02-16T01:52:34.347Z,21.30
2023-02-16T01:55:13.621Z,21.30
2023-02-16T01:57:46.111Z,21.30
2023-02-16T02:00:15.187Z,21.30
2023-02-16T02:02:47.926Z,21.30
2023-02-16T02:05:36.118Z,21.30
2023-02-16T02:08:32.772Z,21.30
2023-02-16T02:11:05.357Z,21.30
2023-02-16T02:14:04.122Z,21.30
2023-02-16T02:16:30.935Z,21.30
2023-02-16T02:18:58.530Z,21.30
2023-02-16T02:22:05.285Z,21.30
2023-02-16T02:24:41.034Z,21.30
2023-02-16T02:27:26.780Z,21.30
2023-02-16T02:30:04.304Z,21.30
2023-02-16T02:32:50.104Z,21.30
2023-02-16T02:35:26.355Z,21.30
2023-02-16T02:38:11.932Z,21.30
2023-02-16T02:40:56.973Z,21.30
2023-02-16T02:44:01.782Z,21.30
2023-02-16T02:46:33.332Z,21.40
2023-02-16T02:49:00.182Z,21.40
2023-02-16T02:51:29.895Z,21.40
2023-02-16T02:54:40.682Z,21.40
2023-02-16T02:57:30.207Z,21.40
2023-02-16T03:00:23.594Z,21.40
2023-02-16T03:02:53.649Z,21.40
2023-02-16T03:05:23.454Z,21.40
2023-02-16T03:07:56.372Z,21.40
2023-02-16T03:10:47.260Z,21.40
2023-02-16T03:13:23.802Z,21.40
2023-02-16T03:15:55.906Z,21.40
2023-02-16T03:18:44.075Z,21.40
2023-02-16T03:21:33.165Z,21.40
2023-02-16T03:24:21.977Z,21.40
2023-02-16T03:27:09.442Z,21.40
2023-02-16T03:29:37.905Z,21.40
2023-02-16T03:32:04.923Z,21.40
2023-02-16T03:34:32.478Z,21.40
2023-02-16T03:37:00.811Z,21.40
2023-02-16T03:39:29.609Z,21.40
2023-02-16T03:41:57.263Z,21.40
2023-02-16T03:44:25.034Z,21.40
2023-02-16T03:46:52.016Z,21.40
2023-02-16T03:49:19.661Z,21.40
2023-02-16T03:51:46.429Z,21.40
2023-02-16T03:54:13.617Z,21.40
2023-02-16T03:56:40.360Z,21.40
2023-02-16T03:59:07.111Z,21.40
2023-02-16T04:01:33.773Z,21.40
2023-02-16T04:04:00.565Z,21.40
2023-02-16T04:06:27.410Z,21.40
2023-02-16T04:08:54.570Z,21.40
2023-02-16T04:11:56.769Z,21.40
2023-02-16T04:14:23.465Z,21.40
2023-02-16T04:16:50.236Z,21.40
2023-02-16T04:19:17.027Z,21.40
2023-02-16T04:21:43.712Z,21.40
2023-02-16T04:24:10.459Z,21.40
2023-02-16T04:26:37.147Z,21.40
2023-02-16T04:29:03.845Z,21.40
2023-02-16T04:31:30.603Z,21.40
2023-02-16T04:33:57.372Z,21.40
2023-02-16T04:36:24.056Z,21.40
2023-02-16T04:38:50.724Z,21.40
2023-02-16T04:41:17.424Z,21.40
2023-02-16T04:43:44.185Z,21.40
2023-02-16T04:46:10.859Z,21.40
2023-02-16T04:48:37.731Z,21.40
2023-02-16T04:51:05.317Z,21.40
2023-02-16T04:53:32.219Z,21.40
2023-02-16T04:55:58.916Z,21.40
2023-02-16T04:58:25.592Z,21.40
2023-02-16T05:00:52.284Z,21.40
2023-02-16T05:03:18.961Z,21.40
2023-02-16T05:05:45.643Z,21.40
2023-02-16T05:08:12.342Z,21.40
2023-02-16T05:10:39.093Z,21.40
2023-02-16T05:13:24.508Z,21.40
2023-02-16T05:15:51.272Z,21.40
2023-02-16T05:18:17.977Z,21.40
2023-02-16T05:21:03.736Z,21.40
2023-02-16T05:23:30.581Z,21.40
2023-02-16T05:25:57.254Z,21.40
2023-02-16T05:28:24.018Z,21.40
2023-02-16T05:30:51.059Z,21.40
2023-02-16T05:33:17.772Z,21.40
2023-02-16T05:35:44.441Z,21.40
2023-02-16T05:38:11.155Z,21.30
2023-02-16T05:40:38.769Z,21.30
2023-02-16T05:43:05.461Z,21.30
2023-02-16T05:45:32.222Z,21.30
2023-02-16T05:47:58.898Z,21.40
2023-02-16T05:50:25.574Z,21.40
2023-02-16T05:52:52.248Z,21.30
2023-02-16T05:55:18.957Z,21.30
2023-02-16T05:57:45.745Z,21.30
2023-02-16T06:00:13.096Z,21.30
2023-02-16T06:02:39.782Z,21.30
2023-02-16T06:05:06.902Z,21.40
2023-02-16T06:07:33.554Z,21.40
2023-02-16T06:10:00.220Z,21.30
2023-02-16T06:12:26.925Z,21.30
2023-02-16T06:14:53.588Z,21.30
2023-02-16T06:17:20.316Z,21.40
2023-02-16T06:19:46.971Z,21.40
2023-02-16T06:22:13.724Z,21.40
2023-02-16T06:24:40.405Z,21.40
2023-02-16T06:27:07.182Z,21.40
2023-02-16T06:29:33.910Z,21.40
2023-02-16T06:32:00.791Z,21.40
2023-02-16T06:34:27.621Z,21.40
2023-02-16T06:36:54.336Z,21.40
2023-02-16T06:39:21.055Z,21.40
2023-02-16T06:41:47.793Z,21.40
2023-02-16T06:44:16.432Z,21.40
2023-02-16T06:46:45.555Z,21.30
2023-02-16T06:49:14.360Z,21.30
2023-02-16T06:51:41.443Z,21.40
2023-02-16T06:54:08.207Z,21.40
2023-02-16T06:56:37.657Z,21.50
2023-02-16T06:59:04.784Z,21.50
2023-02-16T07:01:31.513Z,21.50
2023-02-16T07:03:58.309Z,21.60
2023-02-16T07:06:27.650Z,21.60
2023-02-16T07:08:54.906Z,21.60
2023-02-16T07:11:22.233Z,21.60
2023-02-16T07:13:48.901Z,21.60
2023-02-16T07:16:15.903Z,21.60
2023-02-16T07:18:42.828Z,21.70
2023-02-16T07:21:09.634Z,21.70
2023-02-16T07:23:36.310Z,21.70
2023-02-16T07:26:03.334Z,21.70
2023-02-16T07:28:30.023Z,21.70
2023-02-16T07:30:56.778Z,21.70
2023-02-16T07:33:23.623Z,21.70
2023-02-16T07:35:50.369Z,21.70
2023-02-16T07:38:17.036Z,21.70
2023-02-16T07:40:43.737Z,21.70
2023-02-16T07:43:10.565Z,21.70
2023-02-16T07:45:37.499Z,21.80
2023-02-16T07:48:04.623Z,21.80
2023-02-16T07:50:31.304Z,21.70
2023-02-16T07:52:57.960Z,21.80
2023-02-16T07:55:24.643Z,21.70
2023-02-16T07:57:55.328Z,21.80
2023-02-16T08:00:22.442Z,21.70
2023-02-16T08:02:49.846Z,21.70
2023-02-16T08:05:16.791Z,21.70
2023-02-16T08:07:46.242Z,21.70
2023-02-16T08:10:14.097Z,21.80
2023-02-16T08:12:40.780Z,21.70
2023-02-16T08:15:08.062Z,21.80
2023-02-16T08:17:35.157Z,21.80
2023-02-16T08:20:02.541Z,21.70
2023-02-16T08:22:29.275Z,21.70
2023-02-16T08:24:56.201Z,21.70
2023-02-16T08:27:23.046Z,21.70
2023-02-16T08:29:49.735Z,21.70
2023-02-16T08:32:16.513Z,21.70
2023-02-16T08:34:43.675Z,21.70
2023-02-16T08:37:13.020Z,21.70
2023-02-16T08:39:40.102Z,21.60
2023-02-16T08:42:06.835Z,21.60
2023-02-16T08:44:33.791Z,21.60
2023-02-16T08:47:01.299Z,21.70
2023-02-16T08:49:28.295Z,21.60
2023-02-16T08:51:57.558Z,21.60
2023-02-16T08:54:30.439Z,21.60
2023-02-16T08:56:58.954Z,21.60
2023-02-16T08:59:28.741Z,21.60
2023-02-16T09:01:58.156Z,21.60
2023-02-16T09:04:25.575Z,21.60
2023-02-16T09:06:53.310Z,21.60
2023-02-16T09:09:20.440Z,21.60
2023-02-16T09:11:47.535Z,21.60
2023-02-16T09:14:16.263Z,21.50
2023-02-16T09:16:45.887Z,21.20
2023-02-16T09:19:14.973Z,20.80
2023-02-16T09:21:42.762Z,20.40
2023-02-16T09:24:11.479Z,20.10
2023-02-16T09:26:41.370Z,19.80
2023-02-16T09:29:10.064Z,19.60
2023-02-16T09:31:37.503Z,19.40
2023-02-16T09:34:17.992Z,19.30
2023-02-16T09:36:45.385Z,19.20
2023-02-16T09:39:12.342Z,19.00
2023-02-16T09:42:02.088Z,18.80
2023-02-16T09:44:34.365Z,18.60
2023-02-16T09:47:06.006Z,18.30
2023-02-16T09:49:40.812Z,18.00
2023-02-16T09:52:10.486Z,17.90
2023-02-16T09:54:46.837Z,17.70
2023-02-16T09:57:39.133Z,17.50
2023-02-16T10:00:29.393Z,17.30
2023-02-16T10:03:21.038Z,17.10
2023-02-16T10:05:52.840Z,16.80
2023-02-16T10:08:28.052Z,16.60
2023-02-16T10:11:07.464Z,16.40
2023-02-16T10:13:41.927Z,16.10
2023-02-16T10:16:16.988Z,15.90
2023-02-16T10:18:49.319Z,15.70
2023-02-16T10:21:21.755Z,15.60
2023-02-16T10:23:58.921Z,15.40
2023-02-16T10:26:47.032Z,15.30
2023-02-16T10:29:20.670Z,15.20
2023-02-16T10:32:04.935Z,15.30
2023-02-16T10:34:51.583Z,15.60
2023-02-16T10:37:36.966Z,16.00
2023-02-16T10:40:12.734Z,16.40
2023-02-16T10:42:46.282Z,16.80
2023-02-16T10:45:28.494Z,17.10
2023-02-16T10:47:55.589Z,17.40
2023-02-16T10:50:27.530Z,17.70
2023-02-16T10:53:01.534Z,17.80
2023-02-16T10:55:28.457Z,18.10
2023-02-16T10:58:00.318Z,18.20
2023-02-16T11:00:43.705Z,18.50
2023-02-16T11:03:13.273Z,18.70
2023-02-16T11:05:41.865Z,18.90
2023-02-16T11:08:14.162Z,19.00
2023-02-16T11:10:49.017Z,19.10
2023-02-16T11:13:37.344Z,19.20
2023-02-16T11:16:19.287Z,19.30
2023-02-16T11:18:55.398Z,19.40
2023-02-16T11:21:42.411Z,19.50
2023-02-16T11:24:12.517Z,19.30
2023-02-16T11:26:39.456Z,19.00
2023-02-16T11:29:20.244Z,19.00
2023-02-16T11:31:47.027Z,19.10
2023-02-16T11:34:33.057Z,19.20
2023-02-16T11:37:24.344Z,19.40
2023-02-16T11:39:52.940Z,19.50
2023-02-16T11:42:44.284Z,19.60
2023-02-16T11:45:23.161Z,19.80
2023-02-16T11:47:55.818Z,19.90
2023-02-16T11:50:30.371Z,20.00
2023-02-16T11:53:12.216Z,20.00
2023-02-16T11:55:43.194Z,20.10
2023-02-16T11:58:19.875Z,20.10
2023-02-16T12:01:10.918Z,20.20
2023-02-16T12:03:57.050Z,20.20
2023-02-16T12:06:45.372Z,20.30
2023-02-16T12:09:33.999Z,20.30
2023-02-16T12:12:12.895Z,20.40
2023-02-16T12:15:12.955Z,20.40
2023-02-16T12:17:56.270Z,20.50
2023-02-16T12:20:33.657Z,20.50
2023-02-16T12:23:17.106Z,20.50
2023-02-16T12:26:34.076Z,20.50
2023-02-16T12:29:20.749Z,20.50
2023-02-16T12:31:50.089Z,20.60
2023-02-16T12:34:34.269Z,20.60
2023-02-16T12:37:39.413Z,20.60
2023-02-16T12:40:39.795Z,20.60
2023-02-16T12:43:31.169Z,20.70
2023-02-16T12:46:05.183Z,20.70
2023-02-16T12:48:59.444Z,20.70
2023-02-16T12:51:33.708Z,20.70
2023-02-16T12:54:10.036Z,20.70
2023-02-16T12:56:42.323Z,20.80
2023-02-16T12:59:23.732Z,20.80
2023-02-16T13:01:56.042Z,20.80
2023-02-16T13:04:50.632Z,20.80
2023-02-16T13:07:35.987Z,20.80
2023-02-16T13:10:07.632Z,20.80
2023-02-16T13:12:48.053Z,20.80
2023-02-16T13:15:18.922Z,20.90
2023-02-16T13:18:03.128Z,20.90
2023-02-16T13:20:30.170Z,20.90
2023-02-16T13:23:25.882Z,20.90
2023-02-16T13:25:58.663Z,20.90
2023-02-16T13:28:33.368Z,20.90
2023-02-16T13:31:15.484Z,20.90
2023-02-16T13:34:23.459Z,20.90
2023-02-16T13:36:58.078Z,20.90
2023-02-16T13:39:30.904Z,20.90
2023-02-16T13:42:06.496Z,20.90
2023-02-16T13:44:47.753Z,20.90
2023-02-16T13:47:19.708Z,20.90
2023-02-16T13:49:50.273Z,20.90
2023-02-16T13:52:39.183Z,20.90
2023-02-16T13:55:20.961Z,20.90
2023-02-16T13:57:50.596Z,20.90
2023-02-16T14:00:39.487Z,20.90
2023-02-16T14:03:31.979Z,20.90
2023-02-16T14:06:27.967Z,21.00
2023-02-16T14:09:12.746Z,21.00
2023-02-16T14:11:52.842Z,21.00
2023-02-16T14:14:43.232Z,21.00
2023-02-16T14:17:15.964Z,21.00
2023-02-16T14:20:03.907Z,21.00
2023-02-16T14:22:45.733Z,21.00
2023-02-16T14:25:24.065Z,21.00
2023-02-16T14:27:52.744Z,21.00
2023-02-16T14:30:34.261Z,21.00
2023-02-16T14:33:15.846Z,21.00
2023-02-16T14:35:47.280Z,21.00
2023-02-16T14:38:27.542Z,21.00
2023-02-16T14:41:00.788Z,21.00
2023-02-16T14:43:34.627Z,21.10
2023-02-16T14:46:08.476Z,21.10
2023-02-16T14:48:38.385Z,21.10
2023-02-16T14:51:41.468Z,21.00
2023-02-16T14:54:46.276Z,21.10
2023-02-16T14:57:15.491Z,21.10
2023-02-16T14:59:52.452Z,21.10
2023-02-16T15:02:38.877Z,21.10
2023-02-16T15:05:21.150Z,21.10
2023-02-16T15:07:51.556Z,21.10
2023-02-16T15:10:26.532Z,21.10
2023-02-16T15:12:56.871Z,21.10
2023-02-16T15:15:34.470Z,21.10
2023-02-16T15:18:01.786Z,21.10
2023-02-16T15:20:37.610Z,21.10
2023-02-16T15:23:21.943Z,21.20
2023-02-16T15:26:19.385Z,21.10
2023-02-16T15:28:53.681Z,21.10
2023-02-16T15:31:25.894Z,21.10
2023-02-16T15:33:58.296Z,21.10
2023-02-16T15:36:38.870Z,21.10
2023-02-16T15:39:05.529Z,21.10
2023-02-16T15:41:35.971Z,21.10
2023-02-16T15:44:05.829Z,21.10
2023-02-16T15:46:41.980Z,21.10
2023-02-16T15:49:29.752Z,21.10
2023-02-16T15:51:59.217Z,21.10
2023-02-16T15:54:31.911Z,21.10
2023-02-16T15:57:01.253Z,21.10
2023-02-16T15:59:36.833Z,21.10
2023-02-16T16:02:27.076Z,21.10
2023-02-16T16:04:57.833Z,21.10
2023-02-16T16:07:37.563Z,21.10
2023-02-16T16:10:21.648Z,21.10
2023-02-16T16:12:50.201Z,21.10
2023-02-16T16:15:22.884Z,21.10
2023-02-16T16:17:52.333Z,21.10
2023-02-16T16:20:24.971Z,21.10
2023-02-16T16:22:58.484Z,21.10
2023-02-16T16:25:34.199Z,21.10
2023-02-16T16:28:02.243Z,21.10
2023-02-16T16:30:33.769Z,21.10
2023-02-16T16:33:00.821Z,21.10
2023-02-16T16:35:49.729Z,21.10
2023-02-16T16:38:29.306Z,21.20
2023-02-16T16:40:59.018Z,21.10
2023-02-16T16:43:32.671Z,21.20
2023-02-16T16:46:20.563Z,21.10
2023-02-16T16:48:50.200Z,21.20
2023-02-16T16:51:21.116Z,21.10
2023-02-16T16:53:50.775Z,21.10
2023-02-16T16:56:17.536Z,21.20
2023-02-16T16:58:48.035Z,21.20
2023-02-16T17:01:15.255Z,21.20
2023-02-16T17:03:42.116Z,21.20
2023-02-16T17:06:08.875Z,21.20
2023-02-16T17:08:35.712Z,21.20
2023-02-16T17:11:03.891Z,21.20
2023-02-16T17:13:31.615Z,21.20
2023-02-16T17:16:06.888Z,21.20
2023-02-16T17:18:34.288Z,21.30
2023-02-16T17:21:00.999Z,21.30
2023-02-16T17:23:28.005Z,21.30
2023-02-16T17:25:54.680Z,21.30
2023-02-16T17:28:21.822Z,21.30
2023-02-16T17:30:48.507Z,21.30
2023-02-16T17:33:15.189Z,21.30
2023-02-16T17:35:43.316Z,21.30
2023-02-16T17:38:19.086Z,21.30
2023-02-16T17:40:51.193Z,21.30
2023-02-16T17:43:19.684Z,21.30
2023-02-16T17:45:47.296Z,21.30
2023-02-16T17:48:20.725Z,21.30
2023-02-16T17:50:49.330Z,21.30
2023-02-16T17:53:21.626Z,21.30
2023-02-16T17:55:50.548Z,21.30
2023-02-16T17:58:18.152Z,21.30
2023-02-16T18:00:45.952Z,21.30
2023-02-16T18:03:12.653Z,21.30
2023-02-16T18:05:39.673Z,21.30
2023-02-16T18:08:06.811Z,21.30
2023-02-16T18:10:47.959Z,21.30
2023-02-16T18:13:15.141Z,21.40
2023-02-16T18:15:45.667Z,21.40
2023-02-16T18:18:13.455Z,21.40
2023-02-16T18:20:40.326Z,21.40
2023-02-16T18:23:07.155Z,21.40
2023-02-16T18:25:34.422Z,21.40
2023-02-16T18:28:01.297Z,21.40
2023-02-16T18:30:28.237Z,21.40
2023-02-16T18:32:54.922Z,21.40
2023-02-16T18:35:21.774Z,21.40
2023-02-16T18:37:48.591Z,21.40
2023-02-16T18:40:19.586Z,21.40
2023-02-16T18:42:47.542Z,21.30
2023-02-16T18:45:14.401Z,21.30
2023-02-16T18:47:41.271Z,21.40
2023-02-16T18:50:08.488Z,21.30
2023-02-16T18:52:35.247Z,21.30
2023-02-16T18:55:01.947Z,21.30
2023-02-16T18:57:28.626Z,21.30
2023-02-16T18:59:55.321Z,21.30
2023-02-16T19:02:22.377Z,21.30
2023-02-16T19:04:49.046Z,21.30
2023-02-16T19:07:15.824Z,21.30
2023-02-16T19:09:42.618Z,21.30
2023-02-16T19:12:09.311Z,21.30
2023-02-16T19:14:36.187Z,21.30
2023-02-16T19:17:03.275Z,21.30
2023-02-16T19:19:30.985Z,21.30
2023-02-16T19:21:57.826Z,21.30
2023-02-16T19:24:25.734Z,21.30
2023-02-16T19:26:52.417Z,21.30
2023-02-16T19:29:19.259Z,21.30
2023-02-16T19:31:47.653Z,21.30
2023-02-16T19:34:14.886Z,21.30
2023-02-16T19:36:41.591Z,21.30
2023-02-16T19:39:08.784Z,21.30
2023-02-16T19:41:37.683Z,21.30
2023-02-16T19:44:05.146Z,21.30
2023-02-16T19:46:32.818Z,21.30
2023-02-16T19:48:59.814Z,21.30
2023-02-16T19:51:27.141Z,21.30
2023-02-16T19:53:54.003Z,21.20
2023-02-16T19:56:24.205Z,21.30
2023-02-16T19:58:51.449Z,21.30
2023-02-16T20:01:23.237Z,21.30
2023-02-16T20:03:51.541Z,21.30
2023-02-16T20:06:24.294Z,21.30
2023-02-16T20:08:52.996Z,21.30
2023-02-16T20:11:21.996Z,21.30
2023-02-16T20:13:48.936Z,21.30
2023-02-16T20:16:17.224Z,21.30
2023-02-16T20:18:44.533Z,21.30
2023-02-16T20:21:14.573Z,21.30
2023-02-16T20:23:42.543Z,21.30
2023-02-16T20:26:16.107Z,21.30
2023-02-16T20:28:42.826Z,21.30
2023-02-16T20:31:15.510Z,21.30
2023-02-16T20:33:42.625Z,21.30
2023-02-16T20:36:10.076Z,21.30
2023-02-16T20:38:36.820Z,21.30
2023-02-16T20:41:04.318Z,21.30
2023-02-16T20:43:31.493Z,21.30
2023-02-16T20:45:58.625Z,21.30
2023-02-16T20:48:26.048Z,21.30
2023-02-16T20:50:55.012Z,21.30
2023-02-16T20:53:22.088Z,21.30
2023-02-16T20:55:49.126Z,21.30
2023-02-16T20:58:16.126Z,21.30
2023-02-16T21:00:45.698Z,21.30
2023-02-16T21:03:12.377Z,21.30
2023-02-16T21:05:40.081Z,21.30
2023-02-16T21:08:06.770Z,21.30
2023-02-16T21:10:33.435Z,21.30
2023-02-16T21:13:00.120Z,21.30
2023-02-16T21:15:26.909Z,21.40
2023-02-16T21:17:53.758Z,21.30
2023-02-16T21:20:20.519Z,21.30
2023-02-16T21:22:48.092Z,21.30
2023-02-16T21:25:15.422Z,21.40
2023-02-16T21:27:42.101Z,21.30
2023-02-16T21:30:09.737Z,21.30
2023-02-16T21:32:36.588Z,21.40
2023-02-16T21:35:03.301Z,21.30
2023-02-16T21:37:30.053Z,21.30
2023-02-16T21:40:15.416Z,21.30
2023-02-16T21:42:42.085Z,21.30
2023-02-16T21:45:15.004Z,21.30
2023-02-16T21:48:02.353Z,21.30
2023-02-16T21:50:31.104Z,21.30
2023-02-16T21:52:59.740Z,21.30
2023-02-16T21:55:45.670Z,21.30
2023-02-16T21:58:12.698Z,21.30
2023-02-16T22:00:40.388Z,21.30
2023-02-16T22:03:07.666Z,21.30
2023-02-16T22:05:35.909Z,21.30
2023-02-16T22:08:02.941Z,21.30
2023-02-16T22:10:29.850Z,21.30
2023-02-16T22:12:57.131Z,21.30
2023-02-16T22:15:25.881Z,21.30
2023-02-16T22:17:52.999Z,21.30
2023-02-16T22:20:19.893Z,21.30
2023-02-16T22:22:46.901Z,21.30
2023-02-16T22:25:13.693Z,21.40
2023-02-16T22:27:40.654Z,21.30
2023-02-16T22:30:08.612Z,21.30
2023-02-16T22:32:35.421Z,21.30
2023-02-16T22:35:02.120Z,21.30
2023-02-16T22:37:28.844Z,21.30
2023-02-16T22:39:55.623Z,21.30
2023-02-16T22:42:22.880Z,21.30
2023-02-16T22:44:49.580Z,21.30
2023-02-16T22:47:16.302Z,21.30
2023-02-16T22:49:43.385Z,21.30
2023-02-16T22:52:11.360Z,21.30
2023-02-16T22:54:38.384Z,21.30
2023-02-16T22:57:07.127Z,21.30
2023-02-16T22:59:34.082Z,21.30
2023-02-16T23:02:00.797Z,21.30
2023-02-16T23:04:27.662Z,21.30
2023-02-16T23:06:54.388Z,21.30
2023-02-16T23:09:21.956Z,21.30
2023-02-16T23:11:49.494Z,21.30
2023-02-16T23:14:17.398Z,21.30
2023-02-16T23:16:49.892Z,21.30
2023-02-16T23:19:19.718Z,21.30
2023-02-16T23:21:47.052Z,21.30
2023-02-16T23:24:16.855Z,21.30
2023-02-16T23:26:43.613Z,21.30
2023-02-16T23:29:10.762Z,21.30
2023-02-16T23:31:39.501Z,21.30
2023-02-16T23:34:07.178Z,21.30
2023-02-16T23:36:35.804Z,21.30
2023-02-16T23:39:11.185Z,21.30
2023-02-16T23:41:38.367Z,21.30
2023-02-16T23:44:05.839Z,21.30
2023-02-16T23:46:32.974Z,21.30
2023-02-16T23:48:59.717Z,21.30
2023-02-16T23:51:27.254Z,21.30
2023-02-16T23:53:54.198Z,21.30
2023-02-16T23:56:24.112Z,21.30
2023-02-16T23:58:50.958Z,21.30
